Algoma Mariner — CFN5517 — position and weather

sailwx.info

Track history (hours):
 
Tides and Currents Weather Stations Pressure Air Temp Water Temp Dewpoint Dewpoint Depression Visibility Wind Speed Wind Dir Waves Ship Positions

Algoma Mariner

Last reported at 2015-Feb-06 19:03 UTC. Time now 2015-Mar-05 20:22 UTC.
Position N 46°13' W 072°49'.
Warning: this ship's position is 27 days out of date.

Length 225 m; draft 10.5 m.

Type: Cargo ship. MMSI: 316014050.

Date/timePositionNaut miles runAvg speedWind from/ knotsBaromVisibWave heightAir tempDewpointWater temp
2015-Feb-06 19:03N 46°13' W 072°49'5 9.3
2015-Feb-06 18:33N 46°15' W 072°44'9 8.5
2015-Feb-06 17:33N 46°20' W 072°33'6 6.4
2015-Feb-06 16:33N 46°23' W 072°25'  
2015-Jan-31 04:17N 46°27' W 072°16'1013.6
2015-Jan-31 03:33N 46°22' W 072°29'9 9.5
2015-Jan-31 02:33N 46°16' W 072°39'2 0.1
2015-Jan-30 03:33N 46°16' W 072°42'7 7.3
2015-Jan-30 02:33N 46°20' W 072°33'7 6.8
2015-Jan-30 01:33N 46°24' W 072°25'9 8.8
2015-Jan-30 00:33N 46°29' W 072°14'  
Track history (hours):
 
Tides and Currents Weather Stations Pressure Air Temp Water Temp Dewpoint Dewpoint Depression Visibility Wind Speed Wind Dir Waves Ship Positions

Algoma Mariner

Last reported at 2015-Feb-06 19:03 UTC. Time now 2015-Mar-05 20:22 UTC.
Position N 46°13' W 072°49'.
Warning: this ship's position is 27 days out of date.

Length 225 m; draft 10.5 m.

Type: Cargo ship. MMSI: 316014050.

Date/timePositionNaut miles runAvg speedWind from/ knotsBaromVisibWave heightAir tempDewpointWater temp
2015-Feb-06 19:03N 46°13' W 072°49'5 9.3
2015-Feb-06 18:33N 46°15' W 072°44'9 8.5
2015-Feb-06 17:33N 46°20' W 072°33'6 6.4
2015-Feb-06 16:33N 46°23' W 072°25'  
2015-Jan-31 04:17N 46°27' W 072°16'1013.6
2015-Jan-31 03:33N 46°22' W 072°29'9 9.5
2015-Jan-31 02:33N 46°16' W 072°39'2 0.1
2015-Jan-30 03:33N 46°16' W 072°42'7 7.3
2015-Jan-30 02:33N 46°20' W 072°33'7 6.8
2015-Jan-30 01:33N 46°24' W 072°25'9 8.8
2015-Jan-30 00:33N 46°29' W 072°14'  

Dump ship's entire track history